sensor_id;sensor_type;location;lat;lon;timestamp;temperature;humidity
37285;DHT22;23172;53.550;9.964;2023-07-24T10:04:18;17.60;97.20
37285;DHT22;23172;53.550;9.964;2023-07-24T10:09:22;28.80;59.70
37285;DHT22;23172;53.550;9.964;2023-07-24T10:14:25;27.60;60.10
37285;DHT22;23172;53.550;9.964;2023-07-24T10:19:36;26.90;61.30
37285;DHT22;23172;53.550;9.964;2023-07-24T10:24:39;26.40;61.90
37285;DHT22;23172;53.550;9.964;2023-07-24T10:29:41;26.20;62.40
37285;DHT22;23172;53.550;9.964;2023-07-24T10:34:44;25.90;62.70
37285;DHT22;23172;53.550;9.964;2023-07-24T10:39:47;25.60;64.30
37285;DHT22;23172;53.550;9.964;2023-07-24T10:44:49;25.60;63.90
37285;DHT22;23172;53.550;9.964;2023-07-24T10:49:51;25.80;63.60
37285;DHT22;23172;53.550;9.964;2023-07-24T10:54:54;26.60;62.50
37285;DHT22;23172;53.550;9.964;2023-07-24T10:59:56;26.50;61.10
37285;DHT22;23172;53.550;9.964;2023-07-24T11:04:58;25.90;62.50
37285;DHT22;23172;53.550;9.964;2023-07-24T11:10:02;25.50;63.90
37285;DHT22;23172;53.550;9.964;2023-07-24T11:15:05;29.30;59.10
37285;DHT22;23172;53.550;9.964;2023-07-24T11:20:09;30.40;54.30
37285;DHT22;23172;53.550;9.964;2023-07-24T11:25:13;30.40;53.60
37285;DHT22;23172;53.550;9.964;2023-07-24T11:30:19;30.80;52.50
37285;DHT22;23172;53.550;9.964;2023-07-24T11:35:21;29.90;52.50
37285;DHT22;23172;53.550;9.964;2023-07-24T11:40:32;28.50;53.90
37285;DHT22;23172;53.550;9.964;2023-07-24T11:45:42;28.00;55.40
37285;DHT22;23172;53.550;9.964;2023-07-24T11:50:45;28.30;54.90
37285;DHT22;23172;53.550;9.964;2023-07-24T11:55:49;29.30;54.10
37285;DHT22;23172;53.550;9.964;2023-07-24T12:00:51;32.00;50.80
37285;DHT22;23172;53.550;9.964;2023-07-24T12:05:54;33.90;47.00
37285;DHT22;23172;53.550;9.964;2023-07-24T12:10:57;35.00;44.90
37285;DHT22;23172;53.550;9.964;2023-07-24T12:16:00;34.60;44.00
37285;DHT22;23172;53.550;9.964;2023-07-24T12:21:02;34.10;44.60
37285;DHT22;23172;53.550;9.964;2023-07-24T12:26:05;35.00;43.30
37285;DHT22;23172;53.550;9.964;2023-07-24T12:31:08;35.80;41.20
37285;DHT22;23172;53.550;9.964;2023-07-24T12:36:10;36.40;40.30
37285;DHT22;23172;53.550;9.964;2023-07-24T12:41:13;36.00;40.10
37285;DHT22;23172;53.550;9.964;2023-07-24T12:46:14;35.00;39.90
37285;DHT22;23172;53.550;9.964;2023-07-24T12:51:16;35.10;40.40
37285;DHT22;23172;53.550;9.964;2023-07-24T12:56:19;35.90;39.30
37285;DHT22;23172;53.550;9.964;2023-07-24T13:01:20;36.70;38.70
37285;DHT22;23172;53.550;9.964;2023-07-24T13:06:22;37.10;37.70
37285;DHT22;23172;53.550;9.964;2023-07-24T13:11:26;36.80;37.60
37285;DHT22;23172;53.550;9.964;2023-07-24T13:16:28;37.80;34.50
37285;DHT22;23172;53.550;9.964;2023-07-24T13:21:30;36.90;36.00
37285;DHT22;23172;53.550;9.964;2023-07-24T13:26:34;36.50;36.70
37285;DHT22;23172;53.550;9.964;2023-07-24T13:31:35;35.90;37.50
37285;DHT22;23172;53.550;9.964;2023-07-24T13:36:37;35.70;38.10
37285;DHT22;23172;53.550;9.964;2023-07-24T13:41:41;36.00;37.70
37285;DHT22;23172;53.550;9.964;2023-07-24T13:46:43;34.90;38.50
37285;DHT22;23172;53.550;9.964;2023-07-24T13:51:45;33.70;40.30
37285;DHT22;23172;53.550;9.964;2023-07-24T13:56:48;33.80;40.40
37285;DHT22;23172;53.550;9.964;2023-07-24T14:01:50;33.40;40.60
37285;DHT22;23172;53.550;9.964;2023-07-24T14:06:51;32.90;41.10
37285;DHT22;23172;53.550;9.964;2023-07-24T14:11:54;32.50;41.70
37285;DHT22;23172;53.550;9.964;2023-07-24T14:16:57;31.90;42.40
37285;DHT22;23172;53.550;9.964;2023-07-24T14:21:58;32.00;41.90
37285;DHT22;23172;53.550;9.964;2023-07-24T14:27:03;31.90;42.40
37285;DHT22;23172;53.550;9.964;2023-07-24T14:32:06;31.80;42.20
37285;DHT22;23172;53.550;9.964;2023-07-24T14:37:08;31.50;43.40
37285;DHT22;23172;53.550;9.964;2023-07-24T14:42:12;31.00;44.30
37285;DHT22;23172;53.550;9.964;2023-07-24T14:47:13;30.50;45.00
37285;DHT22;23172;53.550;9.964;2023-07-24T14:52:15;30.10;45.60
37285;DHT22;23172;53.550;9.964;2023-07-24T14:57:19;29.80;46.20
37285;DHT22;23172;53.550;9.964;2023-07-24T15:02:20;29.50;47.20
37285;DHT22;23172;53.550;9.964;2023-07-24T15:07:22;29.20;47.30
37285;DHT22;23172;53.550;9.964;2023-07-24T15:12:26;28.80;48.80
37285;DHT22;23172;53.550;9.964;2023-07-24T15:17:28;28.60;49.40
37285;DHT22;23172;53.550;9.964;2023-07-24T15:22:30;28.60;49.50
37285;DHT22;23172;53.550;9.964;2023-07-24T15:27:33;28.50;50.20
37285;DHT22;23172;53.550;9.964;2023-07-24T15:32:35;28.50;50.30
37285;DHT22;23172;53.550;9.964;2023-07-24T15:37:37;28.40;50.30
37285;DHT22;23172;53.550;9.964;2023-07-24T15:42:40;27.60;53.00
37285;DHT22;23172;53.550;9.964;2023-07-24T15:47:42;26.60;55.10
37285;DHT22;23172;53.550;9.964;2023-07-24T15:52:44;25.90;57.00
37285;DHT22;23172;53.550;9.964;2023-07-24T15:57:47;25.40;58.40
37285;DHT22;23172;53.550;9.964;2023-07-24T16:02:49;25.20;60.80
37285;DHT22;23172;53.550;9.964;2023-07-24T16:07:50;24.90;62.90
37285;DHT22;23172;53.550;9.964;2023-07-24T16:12:54;24.80;63.40
37285;DHT22;23172;53.550;9.964;2023-07-24T16:17:56;24.60;63.90
37285;DHT22;23172;53.550;9.964;2023-07-24T17:43:31;24.10;68.80
37285;DHT22;23172;53.550;9.964;2023-07-24T17:48:33;21.10;90.30
37285;DHT22;23172;53.550;9.964;2023-07-24T17:53:36;20.90;91.30
37285;DHT22;23172;53.550;9.964;2023-07-24T17:58:39;20.90;91.10
37285;DHT22;23172;53.550;9.964;2023-07-24T18:03:41;20.80;91.60
37285;DHT22;23172;53.550;9.964;2023-07-24T18:08:43;20.80;92.00
37285;DHT22;23172;53.550;9.964;2023-07-24T18:13:46;20.70;92.20
37285;DHT22;23172;53.550;9.964;2023-07-24T18:18:47;20.60;92.00
37285;DHT22;23172;53.550;9.964;2023-07-24T18:23:49;20.60;91.80
37285;DHT22;23172;53.550;9.964;2023-07-24T18:28:52;20.50;92.40
37285;DHT22;23172;53.550;9.964;2023-07-24T18:33:53;20.40;92.90
37285;DHT22;23172;53.550;9.964;2023-07-24T18:38:55;20.40;93.40
37285;DHT22;23172;53.550;9.964;2023-07-24T18:43:58;20.40;93.10
37285;DHT22;23172;53.550;9.964;2023-07-24T18:49:00;20.40;93.50
37285;DHT22;23172;53.550;9.964;2023-07-24T18:54:02;20.40;93.50
37285;DHT22;23172;53.550;9.964;2023-07-24T18:59:05;20.30;93.70
37285;DHT22;23172;53.550;9.964;2023-07-24T19:04:06;20.20;93.80
37285;DHT22;23172;53.550;9.964;2023-07-24T19:09:08;20.10;94.10
37285;DHT22;23172;53.550;9.964;2023-07-24T19:14:11;20.00;94.50
37285;DHT22;23172;53.550;9.964;2023-07-24T19:19:13;20.00;94.00
37285;DHT22;23172;53.550;9.964;2023-07-24T19:24:15;19.90;94.30
37285;DHT22;23172;53.550;9.964;2023-07-24T19:29:18;19.90;94.70
37285;DHT22;23172;53.550;9.964;2023-07-24T19:34:20;19.80;95.00
37285;DHT22;23172;53.550;9.964;2023-07-24T19:39:22;19.80;95.20
37285;DHT22;23172;53.550;9.964;2023-07-24T19:44:25;19.80;95.50
37285;DHT22;23172;53.550;9.964;2023-07-24T19:49:27;19.80;95.80
37285;DHT22;23172;53.550;9.964;2023-07-24T19:54:30;19.80;96.00
37285;DHT22;23172;53.550;9.964;2023-07-24T19:59:33;19.70;96.10
37285;DHT22;23172;53.550;9.964;2023-07-24T20:04:35;19.70;96.50
37285;DHT22;23172;53.550;9.964;2023-07-24T20:09:37;19.70;96.80
37285;DHT22;23172;53.550;9.964;2023-07-24T20:14:40;19.60;97.10
37285;DHT22;23172;53.550;9.964;2023-07-24T20:19:42;19.80;97.30
